createdAt,value
2018-07-24T00:00:21.072Z,10.57
2018-07-24T00:02:49.572Z,10.57
2018-07-24T00:05:18.102Z,9.50
2018-07-24T00:07:46.568Z,8.63
2018-07-24T00:10:15.112Z,12.47
2018-07-24T00:12:43.584Z,9.63
2018-07-24T00:15:12.088Z,11.73
2018-07-24T00:17:40.559Z,12.03
2018-07-24T00:20:09.353Z,8.30
2018-07-24T00:22:37.826Z,12.40
2018-07-24T00:25:06.284Z,12.57
2018-07-24T00:27:34.832Z,10.93
2018-07-24T00:30:03.481Z,11.17
2018-07-24T00:32:32.173Z,10.60
2018-07-24T00:35:00.603Z,11.43
2018-07-24T00:37:29.137Z,9.67
2018-07-24T00:39:58.426Z,10.67
2018-07-24T00:42:26.930Z,9.03
2018-07-24T00:44:55.522Z,12.00
2018-07-24T00:47:24.077Z,11.60
2018-07-24T00:49:52.497Z,14.93
2018-07-24T00:52:21.063Z,11.23
2018-07-24T00:54:49.575Z,10.97
2018-07-24T00:57:18.016Z,12.47
2018-07-24T00:59:46.448Z,12.57
2018-07-24T01:02:14.888Z,13.47
2018-07-24T01:04:43.329Z,11.90
2018-07-24T01:07:11.861Z,9.03
2018-07-24T01:09:40.319Z,11.43
2018-07-24T01:12:08.839Z,12.97
2018-07-24T01:14:37.377Z,12.53
2018-07-24T01:17:05.961Z,11.83
2018-07-24T01:19:34.480Z,13.87
2018-07-24T01:22:03.074Z,13.87
2018-07-24T01:24:45.756Z,13.90
2018-07-24T01:27:14.240Z,13.63
2018-07-24T01:29:42.743Z,11.57
2018-07-24T01:32:11.289Z,16.83
2018-07-24T01:34:40.546Z,10.33
2018-07-24T01:37:09.077Z,11.00
2018-07-24T01:39:37.581Z,10.90
2018-07-24T01:42:06.029Z,12.33
2018-07-24T01:44:34.536Z,15.23
2018-07-24T01:47:03.122Z,11.93
2018-07-24T01:49:31.570Z,10.40
2018-07-24T01:52:00.402Z,12.93
2018-07-24T01:54:28.868Z,10.63
2018-07-24T01:56:57.653Z,12.77
2018-07-24T01:59:26.446Z,14.63
2018-07-24T02:01:54.913Z,13.77
2018-07-24T02:04:23.399Z,15.33
2018-07-24T02:06:51.872Z,14.80
2018-07-24T02:09:20.352Z,12.37
2018-07-24T02:11:48.850Z,14.00
2018-07-24T02:14:17.285Z,11.33
2018-07-24T02:16:45.819Z,12.30
2018-07-24T02:19:14.813Z,16.13
2018-07-24T02:21:43.537Z,16.17
2018-07-24T02:24:12.053Z,13.03
2018-07-24T02:26:40.535Z,14.37
2018-07-24T02:29:09.092Z,15.70
2018-07-24T02:31:37.677Z,12.43
2018-07-24T02:34:06.594Z,10.77
2018-07-24T02:36:35.388Z,17.37
2018-07-24T02:39:04.917Z,13.63
2018-07-24T02:41:33.502Z,13.90
2018-07-24T02:44:02.029Z,18.10
2018-07-24T02:46:30.537Z,12.53
2018-07-24T02:48:58.991Z,14.30
2018-07-24T02:51:27.439Z,13.07
2018-07-24T02:53:55.865Z,12.73
2018-07-24T02:56:24.368Z,12.77
2018-07-24T02:58:52.893Z,14.70
2018-07-24T03:01:21.459Z,10.77
2018-07-24T03:03:49.991Z,16.97
2018-07-24T03:06:18.629Z,17.30
2018-07-24T03:08:47.101Z,13.97
2018-07-24T03:11:15.593Z,16.30
2018-07-24T03:13:44.097Z,18.30
2018-07-24T03:16:12.665Z,15.77
2018-07-24T03:18:41.124Z,15.10
2018-07-24T03:21:09.634Z,21.50
2018-07-24T03:23:38.093Z,17.70
2018-07-24T03:26:06.549Z,20.77
2018-07-24T03:28:34.957Z,13.57
2018-07-24T03:31:03.668Z,17.47
2018-07-24T03:33:32.118Z,18.13
2018-07-24T03:36:00.644Z,12.43
2018-07-24T03:38:29.248Z,14.70
2018-07-24T03:40:57.765Z,15.70
2018-07-24T03:43:26.455Z,14.43
2018-07-24T03:45:54.941Z,15.97
2018-07-24T03:48:23.437Z,19.20
2018-07-24T03:50:51.913Z,14.80
2018-07-24T03:53:20.387Z,20.63
2018-07-24T03:55:48.892Z,20.07
2018-07-24T03:58:17.386Z,15.53
2018-07-24T04:00:46.065Z,14.67
2018-07-24T04:03:14.630Z,13.90
2018-07-24T04:05:43.257Z,16.03
2018-07-24T04:08:11.741Z,14.43
2018-07-24T04:10:40.275Z,16.87
2018-07-24T04:13:08.880Z,16.60
2018-07-24T04:15:37.354Z,12.07
2018-07-24T04:18:09.044Z,16.37
2018-07-24T04:20:37.587Z,16.80
2018-07-24T04:23:06.210Z,14.77
2018-07-24T04:25:34.661Z,13.27
2018-07-24T04:28:03.184Z,12.17
2018-07-24T04:30:31.651Z,15.00
2018-07-24T04:33:00.201Z,14.07
2018-07-24T04:35:28.684Z,15.30
2018-07-24T04:37:57.152Z,17.70
2018-07-24T04:40:25.647Z,16.07
2018-07-24T04:42:54.742Z,18.60
2018-07-24T04:45:23.218Z,17.93
2018-07-24T04:47:51.803Z,19.00
2018-07-24T04:50:20.316Z,23.00
2018-07-24T04:52:48.855Z,19.43
2018-07-24T04:55:17.441Z,23.87
2018-07-24T04:57:45.923Z,31.53
2018-07-24T05:00:14.357Z,29.07
2018-07-24T05:02:42.912Z,29.13
2018-07-24T05:05:11.368Z,29.17
2018-07-24T05:07:39.865Z,32.97
2018-07-24T05:10:08.467Z,31.97
2018-07-24T05:12:36.939Z,33.70
2018-07-24T05:15:05.721Z,29.03
2018-07-24T05:17:34.232Z,28.17
2018-07-24T05:20:02.660Z,26.07
2018-07-24T05:22:31.150Z,30.60
2018-07-24T05:24:59.609Z,31.07
2018-07-24T05:27:28.106Z,28.93
2018-07-24T05:29:56.653Z,26.27
2018-07-24T05:32:25.195Z,29.83
2018-07-24T05:34:53.665Z,27.67
2018-07-24T05:37:22.165Z,28.87
2018-07-24T05:39:50.668Z,32.27
2018-07-24T05:42:19.252Z,28.83
2018-07-24T05:44:47.849Z,27.87
2018-07-24T05:47:16.439Z,28.37
2018-07-24T05:49:45.309Z,27.37
2018-07-24T05:52:13.865Z,27.97
2018-07-24T05:54:42.445Z,31.30
2018-07-24T05:57:11.516Z,29.40
2018-07-24T05:59:40.110Z,26.33
2018-07-24T06:02:08.586Z,27.03
2018-07-24T06:04:37.088Z,26.37
2018-07-24T06:07:05.695Z,26.70
2018-07-24T06:09:34.167Z,30.00
2018-07-24T06:12:02.618Z,27.73
2018-07-24T06:14:31.155Z,23.03
2018-07-24T06:16:59.651Z,29.53
2018-07-24T06:19:28.235Z,26.33
2018-07-24T06:21:56.769Z,30.90
2018-07-24T06:24:25.361Z,27.13
2018-07-24T06:26:53.815Z,26.73
2018-07-24T06:29:22.562Z,26.97
2018-07-24T06:31:51.080Z,28.53
2018-07-24T06:34:19.569Z,22.03
2018-07-24T06:36:48.072Z,25.83
2018-07-24T06:39:16.538Z,20.80
2018-07-24T06:41:45.025Z,19.20
2018-07-24T06:44:13.563Z,23.03
2018-07-24T06:46:42.105Z,16.43
2018-07-24T06:49:10.674Z,21.00
2018-07-24T06:51:39.306Z,16.70
2018-07-24T06:54:07.774Z,21.27
2018-07-24T06:56:36.340Z,17.53
2018-07-24T06:59:04.853Z,19.77
2018-07-24T07:01:33.337Z,16.57
2018-07-24T07:04:01.971Z,19.97
2018-07-24T07:06:30.434Z,17.03
2018-07-24T07:09:04.792Z,22.63
2018-07-24T07:11:33.877Z,11.53
2018-07-24T07:14:02.467Z,24.03
2018-07-24T07:16:31.069Z,15.87
2018-07-24T07:18:59.644Z,17.13
2018-07-24T07:21:42.645Z,15.67
2018-07-24T07:24:11.138Z,15.87
2018-07-24T07:26:39.773Z,16.10
2018-07-24T07:29:08.347Z,13.03
2018-07-24T07:31:36.793Z,17.30
2018-07-24T07:34:05.449Z,17.80
2018-07-24T07:36:34.048Z,13.13
2018-07-24T07:39:04.578Z,19.97
2018-07-24T07:41:33.060Z,16.23
2018-07-24T07:44:01.510Z,18.80
2018-07-24T07:46:30.042Z,14.83
2018-07-24T07:48:58.718Z,12.43
2018-07-24T07:51:27.227Z,11.87
2018-07-24T07:53:55.652Z,15.53
2018-07-24T07:56:24.171Z,11.17
2018-07-24T07:58:52.703Z,13.67
2018-07-24T08:01:21.103Z,12.27
2018-07-24T08:03:49.613Z,13.83
2018-07-24T08:06:18.168Z,13.83
2018-07-24T08:08:46.669Z,15.17
2018-07-24T08:11:15.140Z,10.87
2018-07-24T08:13:43.624Z,9.80
2018-07-24T08:16:12.068Z,12.80
2018-07-24T08:18:40.518Z,13.50
2018-07-24T08:21:09.069Z,11.90
2018-07-24T08:23:37.701Z,13.73
2018-07-24T08:26:06.388Z,7.97
2018-07-24T08:28:34.915Z,9.27
2018-07-24T08:31:03.520Z,13.20
2018-07-24T08:33:32.006Z,10.90
2018-07-24T08:36:00.591Z,13.77
2018-07-24T08:38:29.849Z,7.50
2018-07-24T08:40:58.356Z,11.50
2018-07-24T08:43:26.794Z,8.90
2018-07-24T08:45:55.375Z,10.57
2018-07-24T08:48:23.851Z,9.27
2018-07-24T08:50:52.321Z,11.57
2018-07-24T08:53:21.042Z,9.00
2018-07-24T08:55:49.629Z,17.57
2018-07-24T08:58:17.869Z,13.33
2018-07-24T09:00:46.600Z,9.93
2018-07-24T09:03:15.092Z,8.03
2018-07-24T09:05:43.721Z,10.13
2018-07-24T09:08:12.253Z,7.70
2018-07-24T09:10:40.748Z,9.57
2018-07-24T09:13:09.259Z,8.77
2018-07-24T09:15:37.938Z,8.73
2018-07-24T09:18:14.060Z,9.33
2018-07-24T09:20:43.089Z,6.80
2018-07-24T09:23:11.658Z,7.43
2018-07-24T09:25:40.130Z,7.73
2018-07-24T09:28:08.612Z,15.37
2018-07-24T09:30:37.092Z,9.17
2018-07-24T09:33:05.689Z,8.07
2018-07-24T09:35:34.265Z,8.57
2018-07-24T09:38:02.707Z,7.73
2018-07-24T09:40:31.273Z,9.53
2018-07-24T09:42:59.688Z,9.27
2018-07-24T09:45:33.282Z,9.23
2018-07-24T09:48:01.749Z,8.63
2018-07-24T09:50:30.410Z,7.57
2018-07-24T09:52:58.960Z,8.70
2018-07-24T09:55:29.386Z,8.00
2018-07-24T09:57:57.959Z,6.10
2018-07-24T10:00:31.841Z,8.77
2018-07-24T10:03:00.490Z,6.70
2018-07-24T10:05:29.106Z,6.77
2018-07-24T10:07:57.846Z,11.30
2018-07-24T10:10:26.409Z,8.10
2018-07-24T10:12:55.131Z,8.23
2018-07-24T10:15:23.666Z,6.30
2018-07-24T10:17:52.295Z,8.43
2018-07-24T10:20:20.882Z,8.30
2018-07-24T10:22:49.398Z,6.97
2018-07-24T10:25:17.996Z,8.23
2018-07-24T10:27:46.637Z,7.93
2018-07-24T10:30:24.964Z,10.43
2018-07-24T10:32:53.587Z,8.80
2018-07-24T10:35:22.197Z,13.37
2018-07-24T10:37:50.826Z,6.90
2018-07-24T10:40:19.320Z,9.63
2018-07-24T10:42:48.015Z,8.80
2018-07-24T10:45:16.557Z,7.00
2018-07-24T10:47:45.190Z,6.47
2018-07-24T10:50:13.775Z,6.43
2018-07-24T10:52:42.305Z,9.10
2018-07-24T10:55:10.860Z,11.27
2018-07-24T10:57:39.432Z,6.90
2018-07-24T11:00:07.998Z,6.97
2018-07-24T11:02:36.492Z,5.20
2018-07-24T11:05:05.114Z,6.57
2018-07-24T11:07:33.659Z,7.70
2018-07-24T11:10:02.134Z,7.20
2018-07-24T11:12:30.721Z,8.30
2018-07-24T11:14:59.234Z,5.63
2018-07-24T11:17:27.822Z,8.30
2018-07-24T11:19:56.360Z,15.23
2018-07-24T11:22:24.856Z,8.37
2018-07-24T11:24:53.398Z,6.73
2018-07-24T11:27:22.560Z,14.90
2018-07-24T11:29:51.162Z,14.27
2018-07-24T11:32:19.876Z,7.10
2018-07-24T11:34:48.547Z,6.07
2018-07-24T11:37:17.172Z,6.90
2018-07-24T11:39:45.841Z,15.47
2018-07-24T11:42:14.439Z,7.07
2018-07-24T11:44:43.111Z,13.03
2018-07-24T11:47:11.747Z,5.60
2018-07-24T11:49:41.009Z,13.70
2018-07-24T11:52:09.616Z,6.73
2018-07-24T11:54:38.188Z,6.53
2018-07-24T11:57:06.878Z,11.03
2018-07-24T11:59:35.440Z,7.60
2018-07-24T12:02:04.054Z,5.70
2018-07-24T12:04:32.744Z,21.02
2018-07-24T12:07:01.234Z,9.43
2018-07-24T12:09:29.957Z,7.30
2018-07-24T12:11:58.545Z,5.37
2018-07-24T12:14:27.333Z,6.05
2018-07-24T12:16:55.824Z,6.65
2018-07-24T12:19:24.398Z,8.38
2018-07-24T12:21:52.922Z,5.05
2018-07-24T12:24:21.430Z,13.15
2018-07-24T12:26:49.937Z,5.20
2018-07-24T12:29:18.502Z,5.62
2018-07-24T12:31:46.938Z,9.33
2018-07-24T12:34:15.489Z,11.40
2018-07-24T12:36:44.090Z,10.35
2018-07-24T12:39:12.749Z,4.58
2018-07-24T12:41:41.232Z,20.52
2018-07-24T12:44:09.725Z,6.25
2018-07-24T12:46:38.293Z,7.85
2018-07-24T12:49:06.902Z,5.90
2018-07-24T12:51:35.334Z,6.15
2018-07-24T12:54:03.873Z,5.08
2018-07-24T12:56:32.420Z,5.33
2018-07-24T12:59:00.989Z,5.90
2018-07-24T13:01:43.041Z,4.22
2018-07-24T13:04:11.832Z,8.18
2018-07-24T13:06:40.483Z,5.53
2018-07-24T13:09:10.801Z,7.37
2018-07-24T13:11:39.579Z,6.12
2018-07-24T13:14:08.424Z,4.17
2018-07-24T13:16:37.169Z,4.30
2018-07-24T13:19:05.774Z,4.47
2018-07-24T13:21:34.490Z,5.42
2018-07-24T13:24:03.053Z,4.83
2018-07-24T13:26:31.595Z,7.87
2018-07-24T13:29:00.498Z,6.03
2018-07-24T13:31:29.253Z,8.85
2018-07-24T13:33:57.750Z,3.85
2018-07-24T13:36:26.354Z,4.72
2018-07-24T13:38:55.053Z,5.12
2018-07-24T13:41:23.575Z,4.58
2018-07-24T13:43:52.046Z,5.65
2018-07-24T13:46:20.544Z,5.17
2018-07-24T13:48:49.029Z,5.08
2018-07-24T13:51:17.529Z,4.87
2018-07-24T13:53:46.105Z,7.22
2018-07-24T13:56:14.681Z,4.67
2018-07-24T13:58:43.152Z,5.30
2018-07-24T14:01:11.788Z,5.37
2018-07-24T14:03:40.352Z,5.37
2018-07-24T14:06:09.134Z,5.65
2018-07-24T14:08:37.726Z,5.42
2018-07-24T14:11:06.243Z,8.68
2018-07-24T14:13:34.763Z,6.60
2018-07-24T14:16:03.242Z,6.53
2018-07-24T14:18:31.703Z,6.35
2018-07-24T14:21:00.333Z,3.98
2018-07-24T14:23:28.911Z,5.97
2018-07-24T14:25:57.479Z,4.42
2018-07-24T14:28:26.052Z,4.45
2018-07-24T14:30:55.246Z,6.00
2018-07-24T14:33:23.701Z,4.67
2018-07-24T14:35:52.302Z,5.22
2018-07-24T14:38:20.746Z,6.90
2018-07-24T14:40:49.221Z,6.37
2018-07-24T14:43:17.711Z,4.35
2018-07-24T14:45:46.325Z,5.85
2018-07-24T14:48:14.841Z,5.97
2018-07-24T14:50:43.393Z,5.65
2018-07-24T14:53:11.976Z,6.47
2018-07-24T14:55:40.456Z,5.65
2018-07-24T14:58:08.965Z,9.00
2018-07-24T15:00:37.537Z,6.87
2018-07-24T15:03:06.173Z,5.50
2018-07-24T15:05:34.724Z,5.83
2018-07-24T15:08:03.197Z,5.40
2018-07-24T15:10:31.796Z,4.97
2018-07-24T15:13:00.280Z,6.17
2018-07-24T15:15:29.378Z,5.65
2018-07-24T15:17:57.910Z,11.15
2018-07-24T15:20:26.390Z,5.25
2018-07-24T15:22:54.875Z,5.55
2018-07-24T15:25:25.485Z,5.10
2018-07-24T15:27:54.020Z,3.92
2018-07-24T15:30:22.625Z,12.37
2018-07-24T15:32:51.137Z,7.92
2018-07-24T15:35:19.586Z,6.60
2018-07-24T15:37:48.156Z,7.40
2018-07-24T15:40:16.639Z,5.80
2018-07-24T15:42:45.217Z,3.75
2018-07-24T15:45:13.773Z,10.40
2018-07-24T15:47:42.245Z,6.15
2018-07-24T15:50:10.809Z,4.40
2018-07-24T15:52:39.690Z,5.00
2018-07-24T15:55:08.195Z,5.73
2018-07-24T15:57:36.705Z,5.17
2018-07-24T16:00:05.911Z,10.05
2018-07-24T16:02:34.797Z,6.57
2018-07-24T16:05:03.377Z,6.10
2018-07-24T16:07:31.922Z,7.13
2018-07-24T16:10:00.507Z,4.72
2018-07-24T16:12:29.034Z,6.17
2018-07-24T16:14:57.692Z,4.47
2018-07-24T16:17:26.177Z,6.90
2018-07-24T16:19:54.757Z,7.80
2018-07-24T16:22:23.331Z,10.20
2018-07-24T16:25:20.589Z,7.57
2018-07-24T16:27:49.147Z,5.33
2018-07-24T16:30:17.577Z,7.97
2018-07-24T16:32:46.117Z,11.63
2018-07-24T16:35:14.592Z,15.03
2018-07-24T16:37:43.173Z,8.13
2018-07-24T16:40:11.648Z,7.50
2018-07-24T16:42:40.144Z,9.23
2018-07-24T16:45:09.197Z,8.17
2018-07-24T16:47:37.718Z,32.63
2018-07-24T16:50:06.416Z,5.13
2018-07-24T16:52:34.990Z,9.47
2018-07-24T16:55:03.508Z,8.93
2018-07-24T16:57:32.053Z,12.20
2018-07-24T17:00:00.525Z,6.20
2018-07-24T17:02:29.026Z,15.00
2018-07-24T17:04:57.506Z,5.17
2018-07-24T17:07:26.087Z,11.55
2018-07-24T17:09:54.614Z,12.13
2018-07-24T17:12:23.272Z,5.80
2018-07-24T17:14:51.767Z,19.87
2018-07-24T17:17:20.247Z,9.30
2018-07-24T17:19:48.765Z,8.73
2018-07-24T17:22:17.473Z,6.53
2018-07-24T17:24:45.957Z,20.37
2018-07-24T17:27:14.434Z,9.47
2018-07-24T17:29:42.953Z,15.77
2018-07-24T17:32:11.434Z,7.80
2018-07-24T17:34:39.902Z,6.23
2018-07-24T17:37:08.828Z,10.13
2018-07-24T17:39:37.346Z,7.03
2018-07-24T17:42:05.925Z,4.60
2018-07-24T17:44:34.385Z,5.63
2018-07-24T17:47:12.592Z,5.30
2018-07-24T17:49:41.201Z,9.13
2018-07-24T17:52:09.895Z,7.40
2018-07-24T17:54:38.481Z,11.07
2018-07-24T17:57:07.072Z,13.13
2018-07-24T17:59:35.637Z,11.67
2018-07-24T18:02:04.336Z,28.50
2018-07-24T18:04:32.918Z,11.53
2018-07-24T18:07:01.505Z,11.17
2018-07-24T18:09:30.094Z,8.27
2018-07-24T18:11:58.762Z,10.47
2018-07-24T18:14:27.362Z,8.10
2018-07-24T18:16:55.941Z,6.10
2018-07-24T18:19:24.420Z,7.03
2018-07-24T18:21:52.897Z,8.90
2018-07-24T18:24:21.489Z,7.43
2018-07-24T18:26:49.963Z,8.83
2018-07-24T18:29:18.764Z,7.60
2018-07-24T18:31:47.278Z,9.47
2018-07-24T18:34:15.812Z,4.80
2018-07-24T18:36:44.409Z,4.87
2018-07-24T18:39:12.986Z,6.93
2018-07-24T18:41:41.467Z,7.93
2018-07-24T18:44:09.936Z,7.43
2018-07-24T18:46:38.461Z,5.90
2018-07-24T18:49:07.040Z,9.43
2018-07-24T18:51:35.678Z,6.97
2018-07-24T18:54:04.226Z,9.50
2018-07-24T18:56:32.698Z,5.50
2018-07-24T18:59:01.153Z,6.20
2018-07-24T19:01:29.629Z,14.70
2018-07-24T19:03:58.075Z,8.67
2018-07-24T19:06:26.561Z,7.00
2018-07-24T19:08:55.083Z,5.60
2018-07-24T19:11:23.552Z,8.23
2018-07-24T19:13:52.053Z,6.00
2018-07-24T19:16:20.554Z,18.03
2018-07-24T19:18:49.012Z,10.50
2018-07-24T19:21:17.950Z,11.13
2018-07-24T19:23:46.516Z,14.27
2018-07-24T19:26:15.052Z,14.50
2018-07-24T19:28:43.573Z,10.47
2018-07-24T19:31:12.140Z,18.70
2018-07-24T19:33:40.696Z,9.87
2018-07-24T19:36:09.309Z,10.50
2018-07-24T19:38:37.872Z,9.27
2018-07-24T19:41:06.526Z,11.30
2018-07-24T19:43:35.504Z,8.87
2018-07-24T19:46:04.042Z,9.20
2018-07-24T19:48:32.853Z,8.77
2018-07-24T19:51:01.539Z,10.17
2018-07-24T19:53:30.095Z,12.17
2018-07-24T19:55:58.726Z,10.33
2018-07-24T19:58:27.259Z,8.70
2018-07-24T20:00:55.825Z,10.80
2018-07-24T20:03:24.418Z,10.17
2018-07-24T20:05:52.929Z,9.60
2018-07-24T20:08:21.389Z,10.70
2018-07-24T20:10:49.988Z,12.47
2018-07-24T20:13:18.714Z,9.30
2018-07-24T20:15:47.675Z,12.63
2018-07-24T20:18:16.223Z,8.17
2018-07-24T20:20:44.716Z,11.70
2018-07-24T20:23:13.385Z,10.03
2018-07-24T20:25:43.096Z,10.77
2018-07-24T20:28:11.771Z,8.90
2018-07-24T20:30:40.237Z,8.43
2018-07-24T20:33:08.724Z,11.23
2018-07-24T20:35:37.448Z,8.50
2018-07-24T20:38:05.963Z,9.67
2018-07-24T20:40:34.585Z,12.43
2018-07-24T20:43:03.098Z,8.13
2018-07-24T20:45:31.639Z,7.60
2018-07-24T20:48:00.112Z,8.20
2018-07-24T20:50:28.702Z,10.53
2018-07-24T20:52:57.247Z,8.97
2018-07-24T20:55:25.905Z,7.63
2018-07-24T20:57:54.853Z,7.47
2018-07-24T21:00:23.417Z,9.67
2018-07-24T21:02:52.166Z,11.70
2018-07-24T21:05:20.798Z,7.07
2018-07-24T21:07:49.812Z,5.90
2018-07-24T21:10:19.258Z,7.20
2018-07-24T21:12:49.155Z,9.33
2018-07-24T21:15:18.262Z,9.80
2018-07-24T21:17:47.167Z,7.57
2018-07-24T21:20:15.765Z,11.00
2018-07-24T21:22:44.341Z,7.27
2018-07-24T21:28:36.469Z,6.67
2018-07-24T21:31:05.012Z,11.80
2018-07-24T21:33:33.590Z,5.90
2018-07-24T21:36:02.066Z,9.13
2018-07-24T21:38:30.633Z,7.40
2018-07-24T21:40:59.122Z,8.17
2018-07-24T21:46:59.046Z,9.73
2018-07-24T21:49:27.636Z,5.80
2018-07-24T21:51:57.107Z,7.33
2018-07-24T21:54:25.624Z,5.33
2018-07-24T21:56:54.132Z,8.53
2018-07-24T21:59:22.772Z,7.97
2018-07-24T22:01:51.306Z,5.97
2018-07-24T22:04:19.846Z,7.73
2018-07-24T22:06:48.437Z,5.27
2018-07-24T22:09:17.088Z,8.40
2018-07-24T22:11:45.608Z,8.40
2018-07-24T22:14:14.081Z,7.27
2018-07-24T22:16:42.764Z,8.63
2018-07-24T22:19:11.498Z,6.60
2018-07-24T22:21:39.940Z,9.47
2018-07-24T22:24:08.506Z,8.00
2018-07-24T22:26:37.048Z,5.97
2018-07-24T22:29:05.584Z,7.87
2018-07-24T22:31:34.275Z,7.97
2018-07-24T22:34:02.867Z,8.43
2018-07-24T22:36:38.615Z,6.17
2018-07-24T22:39:10.061Z,9.83
2018-07-24T22:41:38.648Z,5.47
2018-07-24T22:44:07.110Z,9.87
2018-07-24T22:46:35.921Z,5.80
2018-07-24T22:49:04.537Z,7.87
2018-07-24T22:51:33.081Z,6.60
2018-07-24T22:54:01.549Z,8.37
2018-07-24T22:56:30.144Z,5.30
2018-07-24T22:58:58.844Z,7.77
2018-07-24T23:01:27.317Z,7.33
2018-07-24T23:03:55.796Z,7.27
2018-07-24T23:06:33.382Z,6.80
2018-07-24T23:09:01.914Z,8.23
2018-07-24T23:11:30.367Z,5.40
2018-07-24T23:13:58.957Z,9.37
2018-07-24T23:16:27.421Z,6.83
2018-07-24T23:18:55.869Z,7.93
2018-07-24T23:21:24.337Z,7.53
2018-07-24T23:23:52.879Z,9.13
2018-07-24T23:26:21.342Z,5.87
2018-07-24T23:28:49.848Z,10.43
2018-07-24T23:31:18.410Z,7.47
2018-07-24T23:33:46.878Z,6.13
2018-07-24T23:36:15.412Z,5.80
2018-07-24T23:38:44.075Z,6.77
2018-07-24T23:41:12.628Z,6.13
2018-07-24T23:43:41.066Z,8.43
2018-07-24T23:46:09.644Z,5.97
2018-07-24T23:48:38.292Z,9.03
2018-07-24T23:51:06.810Z,9.00
2018-07-24T23:53:35.289Z,9.87
2018-07-24T23:56:03.873Z,8.27
2018-07-24T23:58:32.345Z,9.40
